Terminal Aerodrome Forecast
Issued by NWS Cleveland, OH

Home | Current Version | Previous Version | Graphics & Text | Print | Product List | Glossary On
Versions: 1 2 3 4 5 6 7 8 9 10 11 12 13 14 15 16 17 18 19 20 21 22 23 24 25 26
000
FTUS41 KCLE 280500 RRA
TAFCAK
TAF
KCAK 280547Z 2806/2906 27006KT P6SM BKN003 OVC007
      TEMPO 2806/2808 5SM BR OVC007
     FM280800 29008KT 5SM BR OVC007
      TEMPO 2810/2814 4SM -SHRA OVC012
     FM281600 33012G20KT P6SM OVC015=

USA.gov is the U.S. government's official web portal to all federal, state and local government web resources and services.